Time;durP1;ratioP1;P1;durP2;ratioP2;P2;SDS_P1;SDS_P2;PMS_P1;PMS_P2;Temp;Humidity;BMP_temperature;BMP_pressure;BME280_temperature;BME280_humidity;BME280_pressure;Samples;Min_cycle;Max_cycle;Signal;HPM_P1;HPM_P2
2022/03/24 00:07:11;;;;;;;;;0.00;0.00;;;;;;;;2;261077408;261077408;-74
2022/03/24 00:16:39;;;;;;;;;0.00;0.00;;;;;;;;2;288086903;288086903;-74
2022/03/24 00:24:55;;;;;;;;;0.00;0.00;;;;;;;;2;261077048;261077048;-74
2022/03/24 00:34:22;;;;;;;;;0.00;0.00;;;;;;;;2;288083269;288083269;-74
2022/03/24 00:42:38;;;;;;;;;0.00;0.00;;;;;;;;2;261077916;261077916;-74
2022/03/24 00:52:06;;;;;;;;;0.00;0.00;;;;;;;;2;288084517;288084517;-74
2022/03/24 01:00:25;;;;;;;;;0.00;0.00;;;;;;;;2;261077836;261077836;-74
2022/03/24 01:09:52;;;;;;;;;0.00;0.00;;;;;;;;2;288084561;288084561;-74
2022/03/24 01:18:08;;;;;;;;;0.00;0.00;;;;;;;;2;261077042;261077042;-74
2022/03/24 01:27:38;;;;;;;;;0.00;0.00;;;;;;;;2;288085656;288085656;-74
2022/03/24 01:35:53;;;;;;;;;0.00;0.00;;;;;;;;2;261077890;261077890;-74
2022/03/24 01:45:21;;;;;;;;;0.00;0.00;;;;;;;;2;288084793;288084793;-74
2022/03/24 01:53:36;;;;;;;;;0.00;0.00;;;;;;;;2;261077272;261077272;-74
2022/03/24 02:03:05;;;;;;;;;0.00;0.00;;;;;;;;2;288084026;288084026;-74
2022/03/24 02:11:20;;;;;;;;;0.00;0.00;;;;;;;;2;261075238;261075238;-74
2022/03/24 02:20:50;;;;;;;;;0.00;0.00;;;;;;;;2;288086328;288086328;-74
2022/03/24 02:29:10;;;;;;;;;0.00;0.00;;;;;;;;2;261076480;261076480;-74
2022/03/24 02:38:37;;;;;;;;;0.00;0.00;;;;;;;;2;288084189;288084189;-74
2022/03/24 02:46:54;;;;;;;;;0.00;0.00;;;;;;;;2;261076186;261076186;-73
2022/03/24 02:56:21;;;;;;;;;0.00;0.00;;;;;;;;2;288086608;288086608;-73
2022/03/24 03:04:37;;;;;;;;;0.00;0.00;;;;;;;;2;261076120;261076120;-73
2022/03/24 03:14:04;;;;;;;;;0.00;0.00;;;;;;;;2;288082887;288082887;-73
2022/03/24 03:22:21;;;;;;;;;0.00;0.00;;;;;;;;2;261078912;261078912;-75
2022/03/24 03:31:48;;;;;;;;;0.00;0.00;;;;;;;;2;288083482;288083482;-75
2022/03/24 03:40:04;;;;;;;;;0.00;0.00;;;;;;;;2;261074639;261074639;-75
2022/03/24 03:49:32;;;;;;;;;0.00;0.00;;;;;;;;2;288084273;288084273;-75
2022/03/24 03:57:47;;;;;;;;;0.00;0.00;;;;;;;;2;261078211;261078211;-74
2022/03/24 04:07:15;;;;;;;;;0.00;0.00;;;;;;;;2;288084195;288084195;-74
2022/03/24 04:15:31;;;;;;;;;0.00;0.00;;;;;;;;2;261075124;261075124;-74
2022/03/24 04:24:58;;;;;;;;;0.00;0.00;;;;;;;;2;288085168;288085168;-75
2022/03/24 04:33:15;;;;;;;;;0.00;0.00;;;;;;;;2;261076870;261076870;-74
2022/03/24 04:42:44;;;;;;;;;0.00;0.00;;;;;;;;2;288084165;288084165;-74
2022/03/24 04:51:00;;;;;;;;;0.00;0.00;;;;;;;;2;261076402;261076402;-74
2022/03/24 05:00:28;;;;;;;;;0.00;0.00;;;;;;;;2;288084552;288084552;-74
2022/03/24 05:08:44;;;;;;;;;0.00;0.00;;;;;;;;2;261078386;261078386;-73
2022/03/24 05:18:11;;;;;;;;;0.00;0.00;;;;;;;;2;288085155;288085155;-74
2022/03/24 05:26:26;;;;;;;;;0.00;0.00;;;;;;;;2;261078988;261078988;-73
2022/03/24 05:35:54;;;;;;;;;0.00;0.00;;;;;;;;2;288083973;288083973;-74
2022/03/24 05:44:09;;;;;;;;;0.00;0.00;;;;;;;;2;261073630;261073630;-74
2022/03/24 05:53:37;;;;;;;;;0.00;0.00;;;;;;;;2;288085921;288085921;-74
2022/03/24 06:01:53;;;;;;;;;0.00;0.00;;;;;;;;2;261075736;261075736;-74
2022/03/24 06:11:20;;;;;;;;;0.00;0.00;;;;;;;;2;288082908;288082908;-73
2022/03/24 06:19:36;;;;;;;;;0.00;0.00;;;;;;;;2;261080259;261080259;-72
2022/03/24 06:29:04;;;;;;;;;0.00;0.00;;;;;;;;2;288083902;288083902;-72
2022/03/24 06:37:19;;;;;;;;;0.00;0.00;;;;;;;;2;261074992;261074992;-73
2022/03/24 06:46:48;;;;;;;;;0.00;0.00;;;;;;;;2;288081315;288081315;-73
2022/03/24 06:55:05;;;;;;;;;0.00;0.00;;;;;;;;2;261075462;261075462;-72
2022/03/24 07:04:32;;;;;;;;;0.00;0.00;;;;;;;;2;288084337;288084337;-71
2022/03/24 07:12:49;;;;;;;;;0.00;0.00;;;;;;;;2;261078024;261078024;-72
2022/03/24 07:22:17;;;;;;;;;0.00;0.00;;;;;;;;2;288085044;288085044;-73
2022/03/24 07:30:33;;;;;;;;;0.00;0.00;;;;;;;;2;261077555;261077555;-73
2022/03/24 07:40:01;;;;;;;;;0.00;0.00;;;;;;;;2;288081954;288081954;-73
2022/03/24 07:48:18;;;;;;;;;0.00;0.00;;;;;;;;2;261076652;261076652;-73
2022/03/24 07:57:45;;;;;;;;;0.00;0.00;;;;;;;;2;288083818;288083818;-71
2022/03/24 08:06:02;;;;;;;;;0.00;0.00;;;;;;;;2;261074927;261074927;-72
2022/03/24 08:15:29;;;;;;;;;0.00;0.00;;;;;;;;2;288083260;288083260;-72
2022/03/24 08:23:45;;;;;;;;;0.00;0.00;;;;;;;;2;261075555;261075555;-72
2022/03/24 08:33:13;;;;;;;;;0.00;0.00;;;;;;;;2;288086623;288086623;-72
2022/03/24 08:41:28;;;;;;;;;0.00;0.00;;;;;;;;2;261076514;261076514;-72
2022/03/24 08:50:56;;;;;;;;;0.00;0.00;;;;;;;;2;288083875;288083875;-72
2022/03/24 08:59:12;;;;;;;;;0.00;0.00;;;;;;;;2;261075864;261075864;-71
2022/03/24 09:11:58;;;;;;;;;0.00;0.00;;;;;;;;2;288084894;288084894;-72
2022/03/24 09:20:18;;;;;;;;;0.00;0.00;;;;;;;;2;261076657;261076657;-72
2022/03/24 09:29:46;;;;;;;;;0.00;0.00;;;;;;;;2;288084189;288084189;-72
2022/03/24 09:38:02;;;;;;;;;0.00;0.00;;;;;;;;2;261076362;261076362;-72
2022/03/24 09:47:30;;;;;;;;;0.00;0.00;;;;;;;;2;288084416;288084416;-72
2022/03/24 09:55:47;;;;;;;;;0.00;0.00;;;;;;;;2;261073993;261073993;-73
2022/03/24 10:05:18;;;;;;;;;0.00;0.00;;;;;;;;2;288082441;288082441;-73
2022/03/24 10:13:59;;;;;;;;;0.00;0.00;;;;;;;;2;261074144;261074144;-73
2022/03/24 10:23:31;;;;;;;;;0.00;0.00;;;;;;;;2;288082970;288082970;-73
2022/03/24 10:31:53;;;;;;;;;0.00;0.00;;;;;;;;2;261075117;261075117;-73
2022/03/24 10:41:22;;;;;;;;;0.00;0.00;;;;;;;;2;288084750;288084750;-72
2022/03/24 10:49:37;;;;;;;;;0.00;0.00;;;;;;;;2;261076249;261076249;-73
2022/03/24 10:59:05;;;;;;;;;0.00;0.00;;;;;;;;2;288082630;288082630;-72
2022/03/24 11:07:27;;;;;;;;;0.00;0.00;;;;;;;;2;261077024;261077024;-73
2022/03/24 11:16:55;;;;;;;;;0.00;0.00;;;;;;;;2;288083062;288083062;-72
2022/03/24 11:25:10;;;;;;;;;0.00;0.00;;;;;;;;2;261075239;261075239;-73
2022/03/24 11:34:39;;;;;;;;;0.00;0.00;;;;;;;;2;288085641;288085641;-73
2022/03/24 11:43:00;;;;;;;;;0.00;0.00;;;;;;;;2;261076651;261076651;-73
2022/03/24 11:52:28;;;;;;;;;0.00;0.00;;;;;;;;2;288081823;288081823;-73
2022/03/24 12:00:43;;;;;;;;;0.00;0.00;;;;;;;;2;261077417;261077417;-73
2022/03/24 12:10:13;;;;;;;;;0.00;0.00;;;;;;;;2;288087273;288087273;-73
2022/03/24 12:18:38;;;;;;;;;0.00;0.00;;;;;;;;2;261077298;261077298;-73
2022/03/24 12:28:10;;;;;;;;;0.00;0.00;;;;;;;;2;288086721;288086721;-73
2022/03/24 12:36:39;;;;;;;;;0.00;0.00;;;;;;;;2;261078254;261078254;-73
2022/03/24 12:46:27;;;;;;;;;0.00;0.00;;;;;;;;2;288086238;288086238;-73
2022/03/24 12:54:50;;;;;;;;;0.00;0.00;;;;;;;;2;261073277;261073277;-73
2022/03/24 13:04:18;;;;;;;;;0.00;0.00;;;;;;;;2;288083714;288083714;-74
2022/03/24 13:12:34;;;;;;;;;0.00;0.00;;;;;;;;2;261076659;261076659;-73
2022/03/24 13:22:09;;;;;;;;;0.00;0.00;;;;;;;;2;288085009;288085009;-73
2022/03/24 13:30:25;;;;;;;;;0.00;0.00;;;;;;;;2;261077651;261077651;-73
2022/03/24 13:39:55;;;;;;;;;0.00;0.00;;;;;;;;2;288084129;288084129;-71
2022/03/24 13:48:11;;;;;;;;;0.00;0.00;;;;;;;;2;261079790;261079790;-72
2022/03/24 13:57:50;;;;;;;;;0.00;0.00;;;;;;;;2;288086159;288086159;-72
2022/03/24 14:06:09;;;;;;;;;0.00;0.00;;;;;;;;2;261075932;261075932;-72
2022/03/24 14:15:36;;;;;;;;;0.00;0.00;;;;;;;;2;288086300;288086300;-72
2022/03/24 14:23:52;;;;;;;;;0.00;0.00;;;;;;;;2;261076245;261076245;-73
2022/03/24 14:33:19;;;;;;;;;0.00;0.00;;;;;;;;2;288085591;288085591;-72
2022/03/24 14:41:36;;;;;;;;;0.00;0.00;;;;;;;;2;261076903;261076903;-73
2022/03/24 14:51:04;;;;;;;;;0.00;0.00;;;;;;;;2;288086914;288086914;-72
2022/03/24 14:59:20;;;;;;;;;0.00;0.00;;;;;;;;2;261079922;261079922;-72
2022/03/24 15:08:48;;;;;;;;;0.00;0.00;;;;;;;;2;288087025;288087025;-72
2022/03/24 15:17:03;;;;;;;;;0.00;0.00;;;;;;;;2;261076672;261076672;-72
2022/03/24 15:26:32;;;;;;;;;0.00;0.00;;;;;;;;2;288084001;288084001;-72
2022/03/24 15:34:48;;;;;;;;;0.00;0.00;;;;;;;;2;261078140;261078140;-72
2022/03/24 15:44:17;;;;;;;;;0.00;0.00;;;;;;;;2;288084351;288084351;-71
2022/03/24 15:52:32;;;;;;;;;0.00;0.00;;;;;;;;2;261075328;261075328;-72
2022/03/24 16:02:00;;;;;;;;;0.00;0.00;;;;;;;;2;288085124;288085124;-72
2022/03/24 16:10:16;;;;;;;;;0.00;0.00;;;;;;;;2;261073426;261073426;-72
2022/03/24 16:19:43;;;;;;;;;0.00;0.00;;;;;;;;2;288082800;288082800;-72
2022/03/24 16:27:59;;;;;;;;;0.00;0.00;;;;;;;;2;261077886;261077886;-72
2022/03/24 16:37:27;;;;;;;;;0.00;0.00;;;;;;;;2;288085160;288085160;-72
2022/03/24 16:45:42;;;;;;;;;0.00;0.00;;;;;;;;2;261076020;261076020;-72
2022/03/24 16:55:10;;;;;;;;;0.00;0.00;;;;;;;;2;288086627;288086627;-73
2022/03/24 17:03:26;;;;;;;;;0.00;0.00;;;;;;;;2;261079526;261079526;-73
2022/03/24 17:12:54;;;;;;;;;0.00;0.00;;;;;;;;2;288083338;288083338;-72
2022/03/24 17:21:10;;;;;;;;;0.00;0.00;;;;;;;;2;261075094;261075094;-73
2022/03/24 17:30:37;;;;;;;;;0.00;0.00;;;;;;;;2;288082405;288082405;-73
2022/03/24 17:38:53;;;;;;;;;0.00;0.00;;;;;;;;2;261076613;261076613;-73
2022/03/24 17:48:20;;;;;;;;;0.00;0.00;;;;;;;;2;288084350;288084350;-73
2022/03/24 17:56:36;;;;;;;;;0.00;0.00;;;;;;;;2;261076980;261076980;-73
2022/03/24 18:06:04;;;;;;;;;0.00;0.00;;;;;;;;2;288082480;288082480;-72
2022/03/24 18:14:20;;;;;;;;;0.00;0.00;;;;;;;;2;261075812;261075812;-72
2022/03/24 18:23:47;;;;;;;;;0.00;0.00;;;;;;;;2;288083079;288083079;-74
2022/03/24 18:32:04;;;;;;;;;0.00;0.00;;;;;;;;2;261074997;261074997;-74
2022/03/24 18:41:31;;;;;;;;;0.00;0.00;;;;;;;;2;288084014;288084014;-73
2022/03/24 18:49:47;;;;;;;;;0.00;0.00;;;;;;;;2;261077433;261077433;-75
2022/03/24 18:59:14;;;;;;;;;0.00;0.00;;;;;;;;2;288084069;288084069;-76
2022/03/24 19:07:33;;;;;;;;;0.00;0.00;;;;;;;;2;261076609;261076609;-76
2022/03/24 19:17:00;;;;;;;;;0.00;0.00;;;;;;;;2;288083855;288083855;-76
2022/03/24 19:25:17;;;;;;;;;0.00;0.00;;;;;;;;2;261078592;261078592;-77
2022/03/24 19:34:44;;;;;;;;;0.00;0.00;;;;;;;;2;288084476;288084476;-76
2022/03/24 19:43:00;;;;;;;;;0.00;0.00;;;;;;;;2;261079181;261079181;-77
2022/03/24 19:52:28;;;;;;;;;0.00;0.00;;;;;;;;2;288081587;288081587;-76
2022/03/24 20:00:44;;;;;;;;;0.00;0.00;;;;;;;;2;261075678;261075678;-76
2022/03/24 20:10:14;;;;;;;;;0.00;0.00;;;;;;;;2;288084840;288084840;-76
2022/03/24 20:18:29;;;;;;;;;0.00;0.00;;;;;;;;2;261073966;261073966;-78
2022/03/24 20:27:58;;;;;;;;;0.00;0.00;;;;;;;;2;288083348;288083348;-77
2022/03/24 20:36:13;;;;;;;;;0.00;0.00;;;;;;;;2;261075664;261075664;-77
2022/03/24 20:45:41;;;;;;;;;0.00;0.00;;;;;;;;2;288086540;288086540;-77
2022/03/24 20:53:58;;;;;;;;;0.00;0.00;;;;;;;;2;261077536;261077536;-76
2022/03/24 21:03:28;;;;;;;;;0.00;0.00;;;;;;;;2;288084028;288084028;-76
2022/03/24 21:11:44;;;;;;;;;0.00;0.00;;;;;;;;2;261077480;261077480;-77
2022/03/24 21:21:11;;;;;;;;;0.00;0.00;;;;;;;;2;288084237;288084237;-77
2022/03/24 21:29:27;;;;;;;;;0.00;0.00;;;;;;;;2;261080948;261080948;-76
2022/03/24 21:38:54;;;;;;;;;0.00;0.00;;;;;;;;2;288084521;288084521;-75
2022/03/24 21:47:10;;;;;;;;;0.00;0.00;;;;;;;;2;261077803;261077803;-76
2022/03/24 21:56:38;;;;;;;;;0.00;0.00;;;;;;;;2;288086229;288086229;-76
2022/03/24 22:04:53;;;;;;;;;0.00;0.00;;;;;;;;2;261078905;261078905;-76
2022/03/24 22:14:21;;;;;;;;;0.00;0.00;;;;;;;;2;288087850;288087850;-76
2022/03/24 22:22:36;;;;;;;;;0.00;0.00;;;;;;;;2;261077933;261077933;-75
2022/03/24 22:32:04;;;;;;;;;0.00;0.00;;;;;;;;2;288089008;288089008;-75
2022/03/24 22:40:20;;;;;;;;;0.00;0.00;;;;;;;;2;261077748;261077748;-75
2022/03/24 22:49:47;;;;;;;;;0.00;0.00;;;;;;;;2;288083230;288083230;-76
2022/03/24 22:58:03;;;;;;;;;0.00;0.00;;;;;;;;2;261076809;261076809;-76
2022/03/24 23:07:31;;;;;;;;;0.00;0.00;;;;;;;;2;288084554;288084554;-75
2022/03/24 23:15:46;;;;;;;;;0.00;0.00;;;;;;;;2;261076494;261076494;-76
2022/03/24 23:25:14;;;;;;;;;0.00;0.00;;;;;;;;2;288083632;288083632;-75
2022/03/24 23:33:31;;;;;;;;;0.00;0.00;;;;;;;;2;261079021;261079021;-75
2022/03/24 23:42:59;;;;;;;;;0.00;0.00;;;;;;;;2;288086497;288086497;-75
2022/03/24 23:51:17;;;;;;;;;0.00;0.00;;;;;;;;2;261076911;261076911;-75
